Time;durP1;ratioP1;P1;durP2;ratioP2;P2;SDS_P1;SDS_P2;PMS_P1;PMS_P2;Temp;Humidity;BMP_temperature;BMP_pressure;BME280_temperature;BME280_humidity;BME280_pressure;Samples;Min_cycle;Max_cycle;Signal;HPM_P1;HPM_P2
2021/06/18 00:00:48;;;;;;;;;;;27.70;58.40;;;;;;5125904;28;19908;-41
2021/06/18 00:03:14;;;;;;;;;;;27.70;58.40;;;;;;5125773;28;19915;-41
2021/06/18 00:05:40;;;;;;;;;;;27.60;58.40;;;;;;5125980;28;19907;-41
2021/06/18 00:08:06;;;;;;;;;;;27.60;58.30;;;;;;5125791;28;19925;-41
2021/06/18 00:10:31;;;;;;;;;;;27.60;59.00;;;;;;5126006;28;19907;-41
2021/06/18 00:12:57;;;;;;;;;;;27.60;58.50;;;;;;5125736;28;19935;-41
2021/06/18 00:15:23;;;;;;;;;;;27.60;58.40;;;;;;5125429;28;19907;-43
2021/06/18 00:17:50;;;;;;;;;;;27.60;58.40;;;;;;5124249;28;19907;-42
2021/06/18 00:20:16;;;;;;;;;;;27.60;58.40;;;;;;5125839;28;19903;-42
2021/06/18 00:22:42;;;;;;;;;;;27.60;58.40;;;;;;5125751;28;19946;-42
2021/06/18 00:25:08;;;;;;;;;;;27.50;58.40;;;;;;5125574;28;19914;-41
2021/06/18 00:27:34;;;;;;;;;;;27.50;58.40;;;;;;5125761;28;19938;-41
2021/06/18 00:30:00;;;;;;;;;;;27.50;58.40;;;;;;5124535;28;20369;-40
2021/06/18 00:32:26;;;;;;;;;;;27.50;58.40;;;;;;5125077;28;19907;-43
2021/06/18 00:34:52;;;;;;;;;;;27.50;58.30;;;;;;5125247;28;19911;-42
2021/06/18 00:37:17;;;;;;;;;;;27.50;58.30;;;;;;5125441;28;19926;-41
2021/06/18 00:39:43;;;;;;;;;;;27.40;58.30;;;;;;5125622;28;19907;-42
2021/06/18 00:42:09;;;;;;;;;;;27.40;58.30;;;;;;5125002;28;20444;-41
2021/06/18 00:44:35;;;;;;;;;;;27.40;58.30;;;;;;5106792;28;19914;-40
2021/06/18 00:47:01;;;;;;;;;;;27.40;58.40;;;;;;5124744;28;20414;-42
2021/06/18 00:49:27;;;;;;;;;;;27.40;58.40;;;;;;5124137;28;19914;-43
2021/06/18 00:51:53;;;;;;;;;;;27.40;58.40;;;;;;5106687;28;19908;-42
2021/06/18 00:54:28;;;;;;;;;;;27.40;58.40;;;;;;5124374;28;20034;-42
2021/06/18 00:56:55;;;;;;;;;;;27.40;58.40;;;;;;5124756;28;20010;-41
2021/06/18 00:59:22;;;;;;;;;;;27.40;58.40;;;;;;5124812;28;19922;-43
2021/06/18 01:01:47;;;;;;;;;;;27.40;58.40;;;;;;5124365;28;19988;-42
2021/06/18 01:04:13;;;;;;;;;;;27.30;58.40;;;;;;5124029;28;19911;-43
2021/06/18 01:06:39;;;;;;;;;;;27.30;58.40;;;;;;5106055;28;19907;-42
2021/06/18 01:09:06;;;;;;;;;;;27.30;58.40;;;;;;5106393;28;19938;-42
2021/06/18 01:11:44;;;;;;;;;;;27.30;58.50;;;;;;5106313;28;19907;-42
2021/06/18 01:14:11;;;;;;;;;;;27.20;58.50;;;;;;5124845;28;20372;-42
2021/06/18 01:16:38;;;;;;;;;;;27.20;58.50;;;;;;5124498;28;19915;-42
2021/06/18 01:19:20;;;;;;;;;;;27.20;58.60;;;;;;5106020;28;19907;-41
2021/06/18 01:21:47;;;;;;;;;;;27.20;58.70;;;;;;5106205;28;19914;-41
2021/06/18 01:24:30;;;;;;;;;;;27.20;58.80;;;;;;5124663;28;19903;-42
2021/06/18 01:27:13;;;;;;;;;;;27.20;58.80;;;;;;5106203;28;19914;-42
2021/06/18 01:29:41;;;;;;;;;;;27.20;58.80;;;;;;5124359;28;19915;-41
2021/06/18 01:32:08;;;;;;;;;;;27.10;58.60;;;;;;5124153;28;19956;-43
2021/06/18 01:34:34;;;;;;;;;;;27.10;58.70;;;;;;5106079;28;19916;-43
2021/06/18 01:37:08;;;;;;;;;;;27.10;58.50;;;;;;5124087;28;20036;-42
2021/06/18 01:39:34;;;;;;;;;;;27.10;58.60;;;;;;5123865;28;20463;-42
2021/06/18 01:42:01;;;;;;;;;;;27.10;58.70;;;;;;5091717;28;20035;-42
2021/06/18 01:44:27;;;;;;;;;;;27.10;58.70;;;;;;5103641;28;19965;-41
2021/06/18 01:46:52;;;;;;;;;;;27.10;58.80;;;;;;5106892;27;19912;-41
2021/06/18 01:49:19;;;;;;;;;;;27.10;58.90;;;;;;5105086;28;19904;-42
2021/06/18 01:51:45;;;;;;;;;;;27.00;58.90;;;;;;5124130;28;20366;-42
2021/06/18 01:54:11;;;;;;;;;;;27.00;59.00;;;;;;5105626;28;19997;-41
2021/06/18 01:56:37;;;;;;;;;;;27.00;59.00;;;;;;5124049;28;19914;-41
2021/06/18 01:59:03;;;;;;;;;;;27.00;59.00;;;;;;5105058;28;19923;-43
2021/06/18 02:01:33;;;;;;;;;;;27.00;59.10;;;;;;5105632;28;19938;-41
2021/06/18 02:03:59;;;;;;;;;;;27.00;59.20;;;;;;5105519;28;19908;-42
2021/06/18 02:06:25;;;;;;;;;;;26.90;59.10;;;;;;5122937;28;19914;-43
2021/06/18 02:08:54;;;;;;;;;;;26.90;59.20;;;;;;5105092;28;19911;-42
2021/06/18 02:11:22;;;;;;;;;;;26.90;59.10;;;;;;5096692;28;20380;-41
2021/06/18 02:13:48;;;;;;;;;;;26.90;59.00;;;;;;5103472;28;19969;-42
2021/06/18 02:16:14;;;;;;;;;;;26.90;59.10;;;;;;5103324;28;19911;-41
2021/06/18 02:18:40;;;;;;;;;;;26.80;59.00;;;;;;5113518;28;19924;-42
2021/06/18 02:21:06;;;;;;;;;;;26.80;59.60;;;;;;5123665;28;20329;-42
2021/06/18 02:23:32;;;;;;;;;;;26.80;59.00;;;;;;5105472;28;19955;-43
2021/06/18 02:25:59;;;;;;;;;;;26.80;59.60;;;;;;5105294;28;19907;-41
2021/06/18 02:28:25;;;;;;;;;;;26.70;58.90;;;;;;5123523;28;19907;-42
2021/06/18 02:30:51;;;;;;;;;;;26.70;58.90;;;;;;5104284;28;20471;-42
2021/06/18 02:33:16;;;;;;;;;;;26.70;58.90;;;;;;5105124;28;19916;-43
2021/06/18 02:35:43;;;;;;;;;;;26.70;58.90;;;;;;5123672;28;19915;-41
2021/06/18 02:38:09;;;;;;;;;;;26.70;59.00;;;;;;5123403;28;19915;-41
2021/06/18 02:40:35;;;;;;;;;;;26.70;59.00;;;;;;5121882;28;19908;-42
2021/06/18 02:43:01;;;;;;;;;;;26.70;59.00;;;;;;5108369;28;19995;-42
2021/06/18 02:45:27;;;;;;;;;;;26.70;59.10;;;;;;5127275;28;20283;-42
2021/06/18 02:47:55;;;;;;;;;;;26.60;59.00;;;;;;5127782;27;19907;-43
2021/06/18 02:50:27;;;;;;;;;;;26.60;59.20;;;;;;5127427;28;19938;-42
2021/06/18 02:53:12;;;;;;;;;;;26.60;59.00;;;;;;5127642;28;20355;-42
2021/06/18 02:55:42;;;;;;;;;;;26.60;59.10;;;;;;5126906;28;19911;-42
2021/06/18 02:58:19;;;;;;;;;;;26.60;59.20;;;;;;5109087;28;19908;-42
2021/06/18 03:00:45;;;;;;;;;;;26.50;59.10;;;;;;5108699;28;19914;-41
2021/06/18 03:03:13;;;;;;;;;;;26.50;59.10;;;;;;5127373;28;19907;-43
2021/06/18 03:05:38;;;;;;;;;;;26.50;59.10;;;;;;5127396;28;19914;-42
2021/06/18 03:08:05;;;;;;;;;;;26.50;59.20;;;;;;5127148;28;19978;-42
2021/06/18 03:10:38;;;;;;;;;;;26.50;59.10;;;;;;5108441;28;19943;-42
2021/06/18 03:13:09;;;;;;;;;;;26.50;59.10;;;;;;5108766;28;19915;-42
2021/06/18 03:15:35;;;;;;;;;;;26.40;59.20;;;;;;5127186;28;19918;-42
2021/06/18 03:18:01;;;;;;;;;;;26.40;59.30;;;;;;5108479;28;19904;-42
2021/06/18 03:20:27;;;;;;;;;;;26.40;59.10;;;;;;5127002;28;19968;-42
2021/06/18 03:22:57;;;;;;;;;;;26.40;59.20;;;;;;5108855;28;19907;-42
2021/06/18 03:25:24;;;;;;;;;;;26.40;59.30;;;;;;5127049;28;19907;-42
2021/06/18 03:27:50;;;;;;;;;;;26.40;59.20;;;;;;5108677;28;19907;-42
2021/06/18 03:30:16;;;;;;;;;;;26.30;59.00;;;;;;5108352;28;20616;-43
2021/06/18 03:32:42;;;;;;;;;;;26.30;59.30;;;;;;5126704;28;19977;-42
2021/06/18 03:35:08;;;;;;;;;;;26.30;59.30;;;;;;5108100;28;19951;-41
2021/06/18 03:37:35;;;;;;;;;;;26.30;59.70;;;;;;5108322;28;19908;-42
2021/06/18 03:40:01;;;;;;;;;;;26.30;59.10;;;;;;5126621;28;19908;-42
2021/06/18 03:42:27;;;;;;;;;;;26.30;59.30;;;;;;5126699;28;19908;-43
2021/06/18 03:44:53;;;;;;;;;;;26.20;59.00;;;;;;5126855;28;19908;-41
2021/06/18 03:47:19;;;;;;;;;;;26.30;59.10;;;;;;5108059;28;19903;-41
2021/06/18 03:49:45;;;;;;;;;;;26.20;59.10;;;;;;5107268;28;19908;-43
2021/06/18 03:52:11;;;;;;;;;;;26.20;59.10;;;;;;5137606;27;20461;-43
2021/06/18 03:54:37;;;;;;;;;;;26.20;59.20;;;;;;5107995;28;19915;-41
2021/06/18 03:57:03;;;;;;;;;;;26.10;59.10;;;;;;5108205;28;19904;-41
2021/06/18 03:59:29;;;;;;;;;;;26.10;59.30;;;;;;5125877;28;19919;-41
2021/06/18 04:01:55;;;;;;;;;;;26.10;59.30;;;;;;5107768;28;19975;-42
2021/06/18 04:04:21;;;;;;;;;;;26.10;59.30;;;;;;5125995;28;20326;-43
2021/06/18 04:06:47;;;;;;;;;;;26.10;59.30;;;;;;5107292;28;19910;-42
2021/06/18 04:09:13;;;;;;;;;;;26.10;59.20;;;;;;5107850;28;19908;-42
2021/06/18 04:11:39;;;;;;;;;;;26.00;59.10;;;;;;5107506;28;20364;-42
2021/06/18 04:14:06;;;;;;;;;;;26.00;59.20;;;;;;5107654;28;19922;-42
2021/06/18 04:16:32;;;;;;;;;;;26.00;59.10;;;;;;5126045;28;19998;-42
2021/06/18 04:18:58;;;;;;;;;;;26.00;59.20;;;;;;5125680;28;19942;-43
2021/06/18 04:21:24;;;;;;;;;;;25.90;58.90;;;;;;5125841;28;19915;-41
2021/06/18 04:23:50;;;;;;;;;;;25.90;58.90;;;;;;5125761;28;19908;-41
2021/06/18 04:26:19;;;;;;;;;;;25.90;58.90;;;;;;5125786;28;19911;-42
2021/06/18 04:28:45;;;;;;;;;;;25.90;59.00;;;;;;5125709;28;19943;-42
2021/06/18 04:31:11;;;;;;;;;;;25.90;58.90;;;;;;5125283;28;19914;-41
2021/06/18 04:33:36;;;;;;;;;;;25.80;58.90;;;;;;5125204;28;19919;-42
2021/06/18 04:36:03;;;;;;;;;;;25.80;58.90;;;;;;5124362;28;19947;-42
2021/06/18 04:38:29;;;;;;;;;;;25.80;58.80;;;;;;5125692;28;20729;-42
2021/06/18 04:40:54;;;;;;;;;;;25.80;58.90;;;;;;5125385;28;19907;-42
2021/06/18 04:43:20;;;;;;;;;;;25.80;58.90;;;;;;5124615;28;19903;-41
2021/06/18 04:45:46;;;;;;;;;;;25.80;59.00;;;;;;5125423;28;19912;-42
2021/06/18 04:48:13;;;;;;;;;;;25.70;58.90;;;;;;5124764;28;19904;-41
2021/06/18 04:50:39;;;;;;;;;;;25.70;58.80;;;;;;5134402;27;19914;-43
2021/06/18 04:53:05;;;;;;;;;;;25.70;59.40;;;;;;5129793;27;19914;-43
2021/06/18 04:55:31;;;;;;;;;;;25.70;58.90;;;;;;5125313;28;19911;-42
2021/06/18 04:57:57;;;;;;;;;;;25.70;58.90;;;;;;5123997;28;19908;-43
2021/06/18 05:00:26;;;;;;;;;;;25.60;58.90;;;;;;5124554;28;19962;-42
2021/06/18 05:02:52;;;;;;;;;;;25.60;58.90;;;;;;5124680;28;19903;-42
2021/06/18 05:05:18;;;;;;;;;;;25.60;58.90;;;;;;5124674;28;19910;-42
2021/06/18 05:07:44;;;;;;;;;;;25.60;58.90;;;;;;5123609;28;19907;-42
2021/06/18 05:10:10;;;;;;;;;;;25.60;58.90;;;;;;5124956;28;20048;-43
2021/06/18 05:12:36;;;;;;;;;;;25.60;59.00;;;;;;5124608;28;19903;-42
2021/06/18 05:15:03;;;;;;;;;;;25.50;58.90;;;;;;5124710;28;19923;-41
2021/06/18 05:17:29;;;;;;;;;;;25.50;58.90;;;;;;5124597;28;20606;-42
2021/06/18 05:19:54;;;;;;;;;;;25.50;58.90;;;;;;5124797;28;19939;-42
2021/06/18 05:22:20;;;;;;;;;;;25.50;59.00;;;;;;5124318;28;19903;-42
2021/06/18 05:24:46;;;;;;;;;;;25.50;59.00;;;;;;5124641;28;19911;-43
2021/06/18 05:27:12;;;;;;;;;;;25.50;59.00;;;;;;5124707;28;19904;-42
2021/06/18 05:29:38;;;;;;;;;;;25.40;58.90;;;;;;5124415;28;20283;-42
2021/06/18 05:32:04;;;;;;;;;;;25.40;59.00;;;;;;5123983;28;19929;-43
2021/06/18 05:34:30;;;;;;;;;;;25.40;59.10;;;;;;5124517;28;19912;-41
2021/06/18 05:36:56;;;;;;;;;;;25.40;59.20;;;;;;5123832;28;19918;-43
2021/06/18 05:39:22;;;;;;;;;;;25.40;59.10;;;;;;5124356;28;20391;-42
2021/06/18 05:41:48;;;;;;;;;;;25.40;59.20;;;;;;5123983;28;19908;-41
2021/06/18 05:44:14;;;;;;;;;;;25.30;59.20;;;;;;5124415;28;19947;-43
2021/06/18 05:46:40;;;;;;;;;;;25.30;59.20;;;;;;5123433;28;19908;-42
2021/06/18 05:49:06;;;;;;;;;;;25.30;59.20;;;;;;5139506;27;19903;-41
2021/06/18 05:51:32;;;;;;;;;;;25.30;59.20;;;;;;5125862;27;19907;-42
2021/06/18 05:53:58;;;;;;;;;;;25.30;59.20;;;;;;5144322;27;19989;-42
2021/06/18 05:56:24;;;;;;;;;;;25.30;59.20;;;;;;5144615;27;19907;-42
2021/06/18 05:58:49;;;;;;;;;;;25.20;59.20;;;;;;5144305;27;19978;-42
2021/06/18 06:01:15;;;;;;;;;;;25.20;59.30;;;;;;5144158;27;20201;-41
2021/06/18 06:03:41;;;;;;;;;;;25.20;59.20;;;;;;5125822;27;19925;-41
2021/06/18 06:06:10;;;;;;;;;;;25.20;59.30;;;;;;5141577;27;19934;-42
2021/06/18 06:08:36;;;;;;;;;;;25.20;59.30;;;;;;5123671;28;19904;-41
2021/06/18 06:11:02;;;;;;;;;;;25.20;59.30;;;;;;5105497;28;19915;-41
2021/06/18 06:13:28;;;;;;;;;;;25.10;59.30;;;;;;5123519;28;19927;-42
2021/06/18 06:15:54;;;;;;;;;;;25.10;59.30;;;;;;5122953;28;19914;-42
2021/06/18 06:18:20;;;;;;;;;;;25.10;59.40;;;;;;5123608;28;19908;-42
2021/06/18 06:20:46;;;;;;;;;;;25.10;59.40;;;;;;5105424;28;19908;-42
2021/06/18 06:23:12;;;;;;;;;;;25.10;60.10;;;;;;5104894;28;19935;-43
2021/06/18 06:25:38;;;;;;;;;;;25.00;59.40;;;;;;5123722;28;20287;-43
2021/06/18 06:28:05;;;;;;;;;;;25.00;59.40;;;;;;5123550;28;19975;-42
2021/06/18 06:30:30;;;;;;;;;;;25.00;59.50;;;;;;5123527;28;19904;-41
2021/06/18 06:32:56;;;;;;;;;;;25.00;59.50;;;;;;5123094;28;19919;-42
2021/06/18 06:35:24;;;;;;;;;;;25.00;59.50;;;;;;5123413;28;19916;-42
2021/06/18 06:37:51;;;;;;;;;;;25.00;59.60;;;;;;5122939;28;20030;-42
2021/06/18 06:40:17;;;;;;;;;;;25.00;59.50;;;;;;5122728;28;19975;-41
2021/06/18 06:42:42;;;;;;;;;;;25.00;59.60;;;;;;5122450;28;19904;-41
2021/06/18 06:45:09;;;;;;;;;;;24.90;59.60;;;;;;5123459;28;19930;-41
2021/06/18 06:47:34;;;;;;;;;;;24.90;59.60;;;;;;5122214;28;19915;-42
2021/06/18 06:50:00;;;;;;;;;;;24.90;59.70;;;;;;5125380;28;19903;-42
2021/06/18 06:52:26;;;;;;;;;;;24.90;59.70;;;;;;5122915;28;19915;-41
2021/06/18 06:54:52;;;;;;;;;;;24.90;59.70;;;;;;5123399;28;19924;-42
2021/06/18 06:57:20;;;;;;;;;;;24.80;59.70;;;;;;5104743;28;19904;-41
2021/06/18 06:59:46;;;;;;;;;;;24.80;59.70;;;;;;5123092;28;20311;-41
2021/06/18 07:02:12;;;;;;;;;;;24.80;59.80;;;;;;5122565;28;20006;-42
2021/06/18 07:04:38;;;;;;;;;;;24.80;59.80;;;;;;5123146;28;19903;-42
2021/06/18 07:07:04;;;;;;;;;;;24.80;59.80;;;;;;5122786;28;19969;-42
2021/06/18 07:09:33;;;;;;;;;;;24.80;59.90;;;;;;5104931;28;19974;-41
2021/06/18 07:11:59;;;;;;;;;;;24.80;59.90;;;;;;5122716;28;19930;-41
2021/06/18 07:14:25;;;;;;;;;;;24.70;59.80;;;;;;5123300;28;19916;-41
2021/06/18 07:16:50;;;;;;;;;;;24.70;59.90;;;;;;5123050;28;19904;-43
2021/06/18 07:19:16;;;;;;;;;;;24.70;60.00;;;;;;5122836;28;19912;-42
2021/06/18 07:21:42;;;;;;;;;;;24.70;60.00;;;;;;5123024;28;19903;-41
2021/06/18 07:24:08;;;;;;;;;;;24.70;60.00;;;;;;5122663;28;19907;-42
2021/06/18 07:26:34;;;;;;;;;;;24.70;60.00;;;;;;5123604;28;19958;-43
2021/06/18 07:29:00;;;;;;;;;;;24.60;60.00;;;;;;5126680;28;19929;-41
2021/06/18 07:31:26;;;;;;;;;;;24.60;60.00;;;;;;5126578;28;19946;-42
2021/06/18 07:33:52;;;;;;;;;;;24.60;60.10;;;;;;5126324;28;20654;-42
2021/06/18 07:36:17;;;;;;;;;;;24.60;60.20;;;;;;5126315;28;19908;-43
2021/06/18 07:38:43;;;;;;;;;;;24.60;60.10;;;;;;5126492;28;19915;-42
2021/06/18 07:41:09;;;;;;;;;;;24.60;60.20;;;;;;5126474;28;20036;-42
2021/06/18 07:43:35;;;;;;;;;;;24.50;60.20;;;;;;5126232;28;19907;-42
2021/06/18 07:46:01;;;;;;;;;;;24.50;60.20;;;;;;5126351;28;19908;-42
2021/06/18 07:48:27;;;;;;;;;;;24.60;60.30;;;;;;5127646;27;19911;-43
2021/06/18 07:50:53;;;;;;;;;;;24.50;60.30;;;;;;5146742;27;19907;-41
2021/06/18 07:53:19;;;;;;;;;;;24.50;60.30;;;;;;5127883;27;19907;-42
2021/06/18 07:55:46;;;;;;;;;;;24.50;60.30;;;;;;5146875;27;19908;-42
2021/06/18 07:58:12;;;;;;;;;;;24.50;60.30;;;;;;5146580;27;19903;-43
2021/06/18 08:00:38;;;;;;;;;;;24.50;60.40;;;;;;5146748;27;19979;-42
2021/06/18 08:03:06;;;;;;;;;;;24.50;60.40;;;;;;5146622;27;20420;-43
2021/06/18 08:05:32;;;;;;;;;;;24.40;60.40;;;;;;5146542;27;19952;-41
2021/06/18 08:07:58;;;;;;;;;;;24.40;60.50;;;;;;5127752;27;19908;-41
2021/06/18 08:10:25;;;;;;;;;;;24.40;60.50;;;;;;5126034;28;20007;-41
2021/06/18 08:12:51;;;;;;;;;;;24.40;60.60;;;;;;5125742;28;20419;-42
2021/06/18 08:15:17;;;;;;;;;;;24.40;60.60;;;;;;5125740;28;19927;-42
2021/06/18 08:17:43;;;;;;;;;;;24.30;60.50;;;;;;5124915;27;19911;-42
2021/06/18 08:20:10;;;;;;;;;;;24.30;60.60;;;;;;5125752;28;19953;-42
2021/06/18 08:22:36;;;;;;;;;;;24.30;60.60;;;;;;5125639;28;19904;-42
2021/06/18 08:25:02;;;;;;;;;;;24.30;60.70;;;;;;5125468;28;19969;-42
2021/06/18 08:27:29;;;;;;;;;;;24.30;60.60;;;;;;5125938;28;19912;-42
2021/06/18 08:29:54;;;;;;;;;;;24.30;60.80;;;;;;5107052;28;19930;-43
2021/06/18 08:32:20;;;;;;;;;;;24.30;60.80;;;;;;5124602;28;20564;-43
2021/06/18 08:34:46;;;;;;;;;;;24.20;60.80;;;;;;5125162;28;19920;-42
2021/06/18 08:37:12;;;;;;;;;;;24.20;60.80;;;;;;5125221;28;19903;-43
2021/06/18 08:39:38;;;;;;;;;;;24.20;60.90;;;;;;5106313;28;19995;-42
2021/06/18 08:42:04;;;;;;;;;;;24.20;60.80;;;;;;5125362;28;19911;-42
2021/06/18 08:44:30;;;;;;;;;;;24.20;60.90;;;;;;5124975;28;19904;-41
2021/06/18 08:46:56;;;;;;;;;;;24.20;61.00;;;;;;5126364;27;19907;-42
2021/06/18 08:49:23;;;;;;;;;;;24.10;60.90;;;;;;5124844;28;19950;-42
2021/06/18 08:51:48;;;;;;;;;;;24.20;61.00;;;;;;5123867;28;19903;-43
2021/06/18 08:54:14;;;;;;;;;;;24.20;61.10;;;;;;5124769;28;19916;-42
2021/06/18 08:56:40;;;;;;;;;;;24.10;61.10;;;;;;5124907;28;19911;-43
2021/06/18 08:59:06;;;;;;;;;;;24.10;61.00;;;;;;5124933;28;19939;-42
2021/06/18 09:01:32;;;;;;;;;;;24.10;61.10;;;;;;5125072;28;19911;-42
2021/06/18 09:04:01;;;;;;;;;;;24.10;61.10;;;;;;5123969;28;19976;-42
2021/06/18 09:06:28;;;;;;;;;;;24.00;61.10;;;;;;5122710;28;19972;-42
2021/06/18 09:09:12;;;;;;;;;;;24.10;61.20;;;;;;5124933;28;20016;-42
2021/06/18 09:11:48;;;;;;;;;;;24.10;61.20;;;;;;5124767;28;19950;-42
2021/06/18 09:14:29;;;;;;;;;;;24.00;61.20;;;;;;5124526;28;20019;-42
2021/06/18 09:17:07;;;;;;;;;;;24.00;61.20;;;;;;5124377;28;19907;-43
2021/06/18 09:19:34;;;;;;;;;;;24.00;61.20;;;;;;5124228;28;19904;-42
2021/06/18 09:22:03;;;;;;;;;;;24.00;61.30;;;;;;5124632;28;19908;-44
2021/06/18 09:24:34;;;;;;;;;;;24.00;61.30;;;;;;5124183;28;20618;-42
2021/06/18 09:27:00;;;;;;;;;;;24.00;61.50;;;;;;5124430;28;19910;-41
2021/06/18 09:29:27;;;;;;;;;;;24.00;61.40;;;;;;5124584;28;19947;-42
2021/06/18 09:32:03;;;;;;;;;;;23.90;61.50;;;;;;5124380;28;19907;-43
2021/06/18 09:34:43;;;;;;;;;;;24.00;61.50;;;;;;5123676;28;20459;-43
2021/06/18 09:37:12;;;;;;;;;;;23.90;61.50;;;;;;5124174;28;19914;-42
2021/06/18 09:39:58;;;;;;;;;;;23.90;61.50;;;;;;5106056;28;19908;-42
2021/06/18 09:42:25;;;;;;;;;;;23.90;61.50;;;;;;5124059;28;19958;-42
2021/06/18 09:45:01;;;;;;;;;;;23.90;61.50;;;;;;5123931;28;19918;-42
2021/06/18 09:47:28;;;;;;;;;;;23.90;61.50;;;;;;5126758;27;19908;-42
2021/06/18 09:49:54;;;;;;;;;;;23.80;61.60;;;;;;5127955;27;20015;-43
2021/06/18 09:52:21;;;;;;;;;;;23.90;61.60;;;;;;5124087;28;20486;-42
2021/06/18 09:54:49;;;;;;;;;;;23.90;61.60;;;;;;5123674;28;19986;-42
2021/06/18 09:57:35;;;;;;;;;;;23.80;61.60;;;;;;5106164;28;19990;-41
2021/06/18 10:00:04;;;;;;;;;;;23.80;61.70;;;;;;5123849;28;19927;-42
2021/06/18 10:02:36;;;;;;;;;;;23.80;61.70;;;;;;5123714;28;19915;-42
2021/06/18 10:05:03;;;;;;;;;;;23.80;61.80;;;;;;5123575;28;19907;-43
2021/06/18 10:07:31;;;;;;;;;;;23.80;61.80;;;;;;5109759;28;19915;-42
2021/06/18 10:09:58;;;;;;;;;;;23.70;61.80;;;;;;5085608;28;19944;-42
2021/06/18 10:12:24;;;;;;;;;;;23.70;61.90;;;;;;5103445;28;19912;-41
2021/06/18 10:14:50;;;;;;;;;;;23.70;61.90;;;;;;5102742;28;19919;-42
2021/06/18 10:17:16;;;;;;;;;;;23.70;62.60;;;;;;5109060;28;19907;-42
2021/06/18 10:19:42;;;;;;;;;;;23.70;61.90;;;;;;5123523;28;19904;-41
2021/06/18 10:22:10;;;;;;;;;;;23.70;62.00;;;;;;5123832;28;19960;-43
2021/06/18 10:24:46;;;;;;;;;;;23.70;61.90;;;;;;5123796;28;19904;-42
2021/06/18 10:27:16;;;;;;;;;;;23.60;62.00;;;;;;5105338;28;19950;-42
2021/06/18 10:29:42;;;;;;;;;;;23.70;62.10;;;;;;5122721;28;19903;-42
2021/06/18 10:32:37;;;;;;;;;;;23.70;62.10;;;;;;5105316;28;19915;-42
2021/06/18 10:35:04;;;;;;;;;;;23.60;62.10;;;;;;5101253;28;19918;-41
2021/06/18 10:37:31;;;;;;;;;;;23.60;62.10;;;;;;5123299;28;19914;-42
2021/06/18 10:39:58;;;;;;;;;;;23.60;62.10;;;;;;5123515;28;19937;-42
2021/06/18 10:42:24;;;;;;;;;;;23.60;62.20;;;;;;5123514;28;20658;-42
2021/06/18 10:44:50;;;;;;;;;;;23.60;62.20;;;;;;5123554;28;19915;-41
2021/06/18 10:47:30;;;;;;;;;;;23.60;62.30;;;;;;5123087;28;19908;-42
2021/06/18 10:49:56;;;;;;;;;;;23.60;62.30;;;;;;5128009;28;20648;-42
2021/06/18 10:52:25;;;;;;;;;;;23.50;62.20;;;;;;5131560;28;19926;-42
2021/06/18 10:54:52;;;;;;;;;;;23.50;62.30;;;;;;5123289;28;19912;-42
2021/06/18 10:57:19;;;;;;;;;;;23.50;62.30;;;;;;5123321;28;19926;-41
2021/06/18 10:59:46;;;;;;;;;;;23.50;62.30;;;;;;5123364;28;19951;-42
2021/06/18 11:02:25;;;;;;;;;;;23.50;62.40;;;;;;5125117;28;19904;-41
2021/06/18 11:04:53;;;;;;;;;;;23.50;62.40;;;;;;5127131;28;19903;-42
2021/06/18 11:07:28;;;;;;;;;;;23.50;62.40;;;;;;5126873;28;19911;-43
2021/06/18 11:09:55;;;;;;;;;;;23.50;62.50;;;;;;5127344;28;19907;-43
2021/06/18 11:12:24;;;;;;;;;;;23.50;62.50;;;;;;5136394;27;19911;-42
2021/06/18 11:14:53;;;;;;;;;;;23.40;62.50;;;;;;5126223;28;20402;-41
2021/06/18 11:17:40;;;;;;;;;;;23.40;62.40;;;;;;5126500;28;19966;-41
2021/06/18 11:20:10;;;;;;;;;;;23.40;62.50;;;;;;5106582;28;19904;-42
2021/06/18 11:22:49;;;;;;;;;;;23.40;62.50;;;;;;5106604;28;20353;-41
2021/06/18 11:25:34;;;;;;;;;;;23.40;62.60;;;;;;5088855;28;19908;-42
2021/06/18 11:28:18;;;;;;;;;;;23.40;62.60;;;;;;5106672;28;19908;-42
2021/06/18 11:30:51;;;;;;;;;;;23.40;62.60;;;;;;5106510;28;19908;-42
2021/06/18 11:33:35;;;;;;;;;;;23.40;62.60;;;;;;5106202;28;19908;-43
2021/06/18 11:36:02;;;;;;;;;;;23.40;62.60;;;;;;5108042;28;19912;-43
2021/06/18 11:38:27;;;;;;;;;;;23.40;62.70;;;;;;5126946;28;19907;-43
2021/06/18 11:40:57;;;;;;;;;;;23.30;62.60;;;;;;5108395;28;19939;-43
2021/06/18 11:43:26;;;;;;;;;;;23.30;62.70;;;;;;5126803;28;19915;-42
2021/06/18 11:45:52;;;;;;;;;;;23.30;62.70;;;;;;5126307;28;19903;-41
2021/06/18 11:48:19;;;;;;;;;;;23.30;62.70;;;;;;5127770;27;19903;-43
2021/06/18 11:50:45;;;;;;;;;;;23.30;62.70;;;;;;5126404;28;19908;-42
2021/06/18 11:53:11;;;;;;;;;;;23.30;62.80;;;;;;5126359;28;20476;-42
2021/06/18 11:55:37;;;;;;;;;;;23.20;62.80;;;;;;5126475;28;19919;-42
2021/06/18 11:58:03;;;;;;;;;;;23.20;62.80;;;;;;5107604;28;19908;-43
2021/06/18 12:00:32;;;;;;;;;;;23.20;62.80;;;;;;5126364;28;19957;-43
2021/06/18 12:03:01;;;;;;;;;;;23.20;62.80;;;;;;5125058;28;19904;-42
2021/06/18 12:05:30;;;;;;;;;;;23.20;62.80;;;;;;5126306;28;19966;-42
2021/06/18 12:07:56;;;;;;;;;;;23.20;62.80;;;;;;5126003;28;19908;-41
2021/06/18 12:10:34;;;;;;;;;;;23.20;62.80;;;;;;5126339;28;20549;-42
2021/06/18 12:13:00;;;;;;;;;;;23.20;62.80;;;;;;5124789;28;19915;-41
2021/06/18 12:15:27;;;;;;;;;;;23.20;62.90;;;;;;5125797;28;19916;-43
2021/06/18 12:17:55;;;;;;;;;;;23.20;62.80;;;;;;5125072;28;19951;-41
2021/06/18 12:20:24;;;;;;;;;;;23.20;62.80;;;;;;5125979;28;20522;-42
2021/06/18 12:22:50;;;;;;;;;;;23.20;62.80;;;;;;5125766;28;19908;-42
2021/06/18 12:25:16;;;;;;;;;;;23.20;62.80;;;;;;5125954;28;19908;-43
2021/06/18 12:27:42;;;;;;;;;;;23.20;62.80;;;;;;5125694;28;20356;-43
2021/06/18 12:30:14;;;;;;;;;;;23.20;62.80;;;;;;5125857;28;19908;-41
2021/06/18 12:32:40;;;;;;;;;;;23.20;62.80;;;;;;5124384;28;20330;-41
2021/06/18 12:35:07;;;;;;;;;;;23.20;62.80;;;;;;5125361;28;19933;-41
2021/06/18 12:37:34;;;;;;;;;;;23.20;62.80;;;;;;5125330;28;19946;-41
2021/06/18 12:40:01;;;;;;;;;;;23.20;62.80;;;;;;5125770;28;19907;-42
2021/06/18 12:42:28;;;;;;;;;;;23.20;62.90;;;;;;5125291;28;19994;-41
2021/06/18 12:45:13;;;;;;;;;;;23.20;62.90;;;;;;5125328;28;19929;-42
2021/06/18 12:47:40;;;;;;;;;;;23.20;63.00;;;;;;5133063;27;19911;-41
2021/06/18 12:50:24;;;;;;;;;;;23.20;62.90;;;;;;5125212;28;19982;-41
2021/06/18 12:52:51;;;;;;;;;;;23.20;63.00;;;;;;5125350;28;19904;-42
2021/06/18 12:55:27;;;;;;;;;;;23.20;62.90;;;;;;5125264;28;20014;-41
2021/06/18 12:58:05;;;;;;;;;;;23.20;62.90;;;;;;5125121;28;19907;-42
2021/06/18 13:00:31;;;;;;;;;;;23.20;62.90;;;;;;5125189;28;19923;-42
2021/06/18 13:02:57;;;;;;;;;;;23.20;62.80;;;;;;5123873;28;19970;-41
2021/06/18 13:05:23;;;;;;;;;;;23.30;62.90;;;;;;5125045;28;19915;-41
2021/06/18 13:07:51;;;;;;;;;;;23.30;62.90;;;;;;5123543;28;19915;-41
2021/06/18 13:10:17;;;;;;;;;;;23.30;62.90;;;;;;5124991;28;19907;-41
2021/06/18 13:12:56;;;;;;;;;;;23.30;62.80;;;;;;5124771;28;19915;-41
2021/06/18 13:15:28;;;;;;;;;;;23.30;63.60;;;;;;5124880;28;19972;-40
2021/06/18 13:17:54;;;;;;;;;;;23.30;62.90;;;;;;5123904;28;19915;-41
2021/06/18 13:20:36;;;;;;;;;;;23.30;63.00;;;;;;5124412;28;19965;-40
2021/06/18 13:23:02;;;;;;;;;;;23.30;63.00;;;;;;5124907;28;20002;-42
2021/06/18 13:25:29;;;;;;;;;;;23.40;63.10;;;;;;5124306;28;20373;-43
2021/06/18 13:28:01;;;;;;;;;;;23.30;63.00;;;;;;5124552;28;19908;-42
2021/06/18 13:30:27;;;;;;;;;;;23.40;63.00;;;;;;5124750;28;19911;-40
2021/06/18 13:32:55;;;;;;;;;;;23.40;63.00;;;;;;5124350;28;19947;-42
2021/06/18 13:35:21;;;;;;;;;;;23.40;62.90;;;;;;5106101;28;19950;-42
2021/06/18 13:38:05;;;;;;;;;;;23.50;62.90;;;;;;5105235;28;19911;-42
2021/06/18 13:40:38;;;;;;;;;;;23.50;62.90;;;;;;5104251;28;19925;-43
2021/06/18 13:43:04;;;;;;;;;;;23.50;62.90;;;;;;5086059;28;19907;-41
2021/06/18 13:45:30;;;;;;;;;;;23.50;62.90;;;;;;5103754;28;19962;-41
2021/06/18 13:47:59;;;;;;;;;;;23.60;63.00;;;;;;5114602;28;19914;-41
2021/06/18 13:50:25;;;;;;;;;;;23.60;63.00;;;;;;5123972;28;19914;-41
2021/06/18 13:52:52;;;;;;;;;;;23.60;63.00;;;;;;5126440;27;19955;-42
2021/06/18 13:55:17;;;;;;;;;;;23.60;63.00;;;;;;5141767;27;19937;-41
2021/06/18 13:57:43;;;;;;;;;;;23.60;62.90;;;;;;5144526;27;19982;-42
2021/06/18 14:00:09;;;;;;;;;;;23.70;63.00;;;;;;5144511;27;19936;-41
2021/06/18 14:02:35;;;;;;;;;;;23.70;63.20;;;;;;5128394;27;19907;-41
2021/06/18 14:05:01;;;;;;;;;;;23.70;63.20;;;;;;5123704;28;20593;-41
2021/06/18 14:07:27;;;;;;;;;;;23.70;63.20;;;;;;5123920;28;19968;-41
2021/06/18 14:09:53;;;;;;;;;;;23.70;62.90;;;;;;5105402;28;20555;-41
2021/06/18 14:12:19;;;;;;;;;;;23.80;62.90;;;;;;5123819;28;19907;-42
2021/06/18 14:14:47;;;;;;;;;;;23.80;62.70;;;;;;5123567;28;19915;-41
2021/06/18 14:17:16;;;;;;;;;;;23.80;62.70;;;;;;5123009;28;19903;-41
2021/06/18 14:19:46;;;;;;;;;;;23.90;62.80;;;;;;5123572;28;19926;-42